This is the latest recevied weather packets stored in our database for station/object HB9EKO-12. If no packets are shown the sender has not sent any weather packets the latest 10 day(s).
| Time | Temp. | Humidity | Pressure | Rain* | Wind** | Luminosity | Snow |
|---|---|---|---|---|---|---|---|
| 1776990328 | 8.33° C | 50% | 1023 hPa | - | - | - | - |
| 1776989423 | 8.33° C | 52% | 1023 hPa | - | - | - | - |
| 1776988517 | 8.33° C | 50% | 1023 hPa | - | - | - | - |
| 1776987612 | 8.89° C | 49% | 1023 hPa | - | - | - | - |
| 1776986707 | 8.89° C | 50% | 1023 hPa | - | - | - | - |
| 1776985802 | 9.44° C | 46% | 1024 hPa | - | - | - | - |
| 1776984896 | 9.44° C | 47% | 1024 hPa | - | - | - | - |
| 1776983991 | 9.44° C | 47% | 1024 hPa | - | - | - | - |
| 1776983086 | 10° C | 47% | 1024 hPa | - | - | - | - |
| 1776982181 | 10° C | 47% | 1024 hPa | - | - | - | - |
| 1776981275 | 10.56° C | 43% | 1024 hPa | - | - | - | - |
| 1776980370 | 10° C | 46% | 1024 hPa | - | - | - | - |
| 1776979465 | 11.11° C | 44% | 1024 hPa | - | - | - | - |
| 1776978560 | 11.11° C | 44% | 1024 hPa | - | - | - | - |
| 1776977655 | 11.67° C | 43% | 1023 hPa | - | - | - | - |
| 1776976749 | 11.67° C | 41% | 1023 hPa | - | - | - | - |
| 1776975844 | 12.22° C | 41% | 1023 hPa | - | - | - | - |
| 1776974939 | 12.78° C | 39% | 1023 hPa | - | - | - | - |
| 1776974033 | 13.89° C | 36% | 1023 hPa | - | - | - | - |
| 1776973128 | 14.44° C | 35% | 1023 hPa | - | - | - | - |
| 1776972223 | 15° C | 33% | 1023 hPa | - | - | - | - |
| 1776971318 | 15.56° C | 31% | 1023 hPa | - | - | - | - |
| 1776970412 | 16.11° C | 28% | 1023 hPa | - | - | - | - |
| 1776969507 | 17.78° C | 25% | 1023 hPa | - | - | - | - |
| 1776967697 | 20° C | 20% | 1023 hPa | - | - | - | - |
* Rain since midnight (hover to see other rain measurements)
** Current wind speed in m/s (hover to see current wind gust speed)